GLG1602 SEQM-SEGU
Flight info
| Callsign | GLG1602 |
|---|---|
| Flight time | 0h 40m |
| Altitude | 24000 |
| Route | TEMOX3B TEMOX TEMOX2 |
| Aircraft | A320/M-SDE3FGHIRWY/LB1 |
Departure
| Time | 2026-04-23 22:18 |
|---|---|
| Airport | Mariscal Sucre International Airport (SEQM) |
Arrival
| Time | 2026-04-23 22:58 |
|---|---|
| Airport | José Joaquín de Olmedo International Airport (SEGU) |
| Time | Latitude | Longitude | Altitude | Speed | Heading |
|---|---|---|---|---|---|
| 2026-04-23 21:40 | -0.12613 | -78.35917 | 7984 ft | 0 kts | 268° |
| 2026-04-23 22:07 | -0.12613 | -78.35907 | 7987 ft | 4 kts | 268° |
| 2026-04-23 22:07 | -0.12612 | -78.35880 | 7984 ft | 4 kts | 267° |
| 2026-04-23 22:07 | -0.12608 | -78.35854 | 7989 ft | 4 kts | 244° |
| 2026-04-23 22:07 | -0.12592 | -78.35835 | 7984 ft | 4 kts | 193° |
| 2026-04-23 22:08 | -0.12580 | -78.35833 | 7984 ft | 1 kts | 179° |
| 2026-04-23 22:08 | -0.12579 | -78.35833 | 7984 ft | 0 kts | 179° |
| 2026-04-23 22:12 | -0.12583 | -78.35833 | 7984 ft | 3 kts | 179° |
| 2026-04-23 22:12 | -0.12625 | -78.35833 | 7984 ft | 8 kts | 178° |
| 2026-04-23 22:13 | -0.12690 | -78.35804 | 7984 ft | 12 kts | 96° |
| 2026-04-23 22:13 | -0.12693 | -78.35701 | 7985 ft | 17 kts | 88° |
| 2026-04-23 22:13 | -0.12714 | -78.35606 | 7986 ft | 15 kts | 149° |
| 2026-04-23 22:13 | -0.12835 | -78.35593 | 7986 ft | 20 kts | 176° |
| 2026-04-23 22:14 | -0.12994 | -78.35586 | 7989 ft | 25 kts | 178° |
| 2026-04-23 22:14 | -0.13176 | -78.35579 | 7986 ft | 25 kts | 178° |
| 2026-04-23 22:14 | -0.13370 | -78.35571 | 7985 ft | 30 kts | 178° |
| 2026-04-23 22:14 | -0.13558 | -78.35564 | 7985 ft | 22 kts | 178° |
| 2026-04-23 22:15 | -0.13728 | -78.35556 | 7993 ft | 25 kts | 178° |
| 2026-04-23 22:15 | -0.13902 | -78.35548 | 7984 ft | 23 kts | 178° |
| 2026-04-23 22:15 | -0.14026 | -78.35543 | 7984 ft | 13 kts | 177° |
| 2026-04-23 22:15 | -0.14109 | -78.35539 | 7984 ft | 11 kts | 177° |
| 2026-04-23 22:16 | -0.14175 | -78.35536 | 7988 ft | 8 kts | 177° |
| 2026-04-23 22:16 | -0.14222 | -78.35526 | 7984 ft | 6 kts | 156° |
| 2026-04-23 22:16 | -0.14249 | -78.35502 | 7987 ft | 6 kts | 125° |
| 2026-04-23 22:16 | -0.14257 | -78.35449 | 7987 ft | 10 kts | 88° |
| 2026-04-23 22:17 | -0.14253 | -78.35369 | 7983 ft | 8 kts | 85° |
| 2026-04-23 22:17 | -0.14233 | -78.35363 | 7983 ft | 0 kts | 359° |
| 2026-04-23 22:17 | -0.14185 | -78.35364 | 7983 ft | 25 kts | 358° |
| 2026-04-23 22:18 | -0.13767 | -78.35381 | 7984 ft | 92 kts | 358° |
| 2026-04-23 22:18 | -0.12937 | -78.35418 | 7990 ft | 145 kts | 358° |
| 2026-04-23 22:18 | -0.11772 | -78.35465 | 8029 ft | 184 kts | 358° |
| 2026-04-23 22:18 | -0.10520 | -78.35521 | 8752 ft | 179 kts | 358° |
| 2026-04-23 22:19 | -0.09279 | -78.35592 | 9503 ft | 179 kts | 357° |
| 2026-04-23 22:19 | -0.08047 | -78.35666 | 10020 ft | 186 kts | 356° |
| 2026-04-23 22:19 | -0.06680 | -78.35748 | 10174 ft | 208 kts | 356° |
| 2026-04-23 22:19 | -0.05160 | -78.35838 | 10361 ft | 229 kts | 356° |
| 2026-04-23 22:20 | -0.03463 | -78.35939 | 10535 ft | 253 kts | 353° |
| 2026-04-23 22:20 | -0.01818 | -78.36560 | 11056 ft | 260 kts | 319° |
| 2026-04-23 22:20 | -0.00827 | -78.38046 | 11677 ft | 264 kts | 283° |
| 2026-04-23 22:20 | -0.00711 | -78.39873 | 12372 ft | 267 kts | 264° |
| 2026-04-23 22:21 | -0.01016 | -78.41715 | 13103 ft | 270 kts | 257° |
| 2026-04-23 22:21 | -0.01451 | -78.43549 | 13813 ft | 273 kts | 256° |
| 2026-04-23 22:21 | -0.01893 | -78.45399 | 14521 ft | 275 kts | 257° |
| 2026-04-23 22:21 | -0.02301 | -78.47277 | 15182 ft | 278 kts | 258° |
| 2026-04-23 22:22 | -0.02673 | -78.49182 | 15854 ft | 280 kts | 259° |
| 2026-04-23 22:22 | -0.03013 | -78.51109 | 16508 ft | 283 kts | 260° |
| 2026-04-23 22:22 | -0.03334 | -78.53059 | 16997 ft | 286 kts | 261° |
| 2026-04-23 22:22 | -0.03647 | -78.55039 | 17495 ft | 295 kts | 261° |
| 2026-04-23 22:23 | -0.03964 | -78.57021 | 17879 ft | 305 kts | 258° |
| 2026-04-23 22:23 | -0.04608 | -78.59061 | 18392 ft | 312 kts | 246° |
| 2026-04-23 22:23 | -0.05740 | -78.60963 | 18643 ft | 327 kts | 231° |
| 2026-04-23 22:23 | -0.07363 | -78.62659 | 18951 ft | 341 kts | 224° |
| 2026-04-23 22:24 | -0.08511 | -78.63772 | 19035 ft | 353 kts | 224° |
| 2026-04-23 22:24 | -0.10357 | -78.65562 | 19192 ft | 370 kts | 224° |
| 2026-04-23 22:24 | -0.12242 | -78.67397 | 19598 ft | 378 kts | 224° |
| 2026-04-23 22:24 | -0.14134 | -78.69246 | 20094 ft | 382 kts | 224° |
| 2026-04-23 22:25 | -0.16045 | -78.71120 | 20630 ft | 386 kts | 224° |
| 2026-04-23 22:25 | -0.17969 | -78.73011 | 21138 ft | 391 kts | 224° |
| 2026-04-23 22:25 | -0.19919 | -78.74927 | 21642 ft | 395 kts | 224° |
| 2026-04-23 22:25 | -0.21884 | -78.76856 | 22119 ft | 398 kts | 224° |
| 2026-04-23 22:26 | -0.23871 | -78.78802 | 22598 ft | 402 kts | 224° |
| 2026-04-23 22:26 | -0.25881 | -78.80768 | 23065 ft | 406 kts | 223° |
| 2026-04-23 22:26 | -0.27907 | -78.82749 | 23511 ft | 410 kts | 224° |
| 2026-04-23 22:26 | -0.29953 | -78.84750 | 23963 ft | 413 kts | 223° |
| 2026-04-23 22:27 | -0.32013 | -78.86770 | 24218 ft | 416 kts | 223° |
| 2026-04-23 22:27 | -0.34057 | -78.88779 | 24269 ft | 405 kts | 223° |
| 2026-04-23 22:27 | -0.36034 | -78.90721 | 24272 ft | 394 kts | 223° |
| 2026-04-23 22:27 | -0.37984 | -78.92629 | 24274 ft | 392 kts | 223° |
| 2026-04-23 22:28 | -0.39930 | -78.94531 | 24274 ft | 391 kts | 223° |
| 2026-04-23 22:28 | -0.41872 | -78.96432 | 24274 ft | 391 kts | 223° |
| 2026-04-23 22:28 | -0.43811 | -78.98330 | 24274 ft | 391 kts | 223° |
| 2026-04-23 22:28 | -0.45753 | -79.00233 | 24275 ft | 391 kts | 223° |
| 2026-04-23 22:29 | -0.47689 | -79.02132 | 24276 ft | 391 kts | 223° |
| 2026-04-23 22:29 | -0.48977 | -79.03394 | 24275 ft | 391 kts | 223° |
| 2026-04-23 22:29 | -0.50945 | -79.05321 | 24276 ft | 391 kts | 223° |
| 2026-04-23 22:29 | -0.52886 | -79.07222 | 24271 ft | 391 kts | 223° |
| 2026-04-23 22:30 | -0.54824 | -79.09122 | 24267 ft | 391 kts | 223° |
| 2026-04-23 22:30 | -0.56763 | -79.11020 | 24269 ft | 391 kts | 223° |
| 2026-04-23 22:30 | -0.58868 | -79.12735 | 24266 ft | 389 kts | 212° |
| 2026-04-23 22:30 | -0.61234 | -79.14014 | 24264 ft | 387 kts | 203° |
| 2026-04-23 22:31 | -0.63683 | -79.15141 | 24261 ft | 387 kts | 203° |
| 2026-04-23 22:31 | -0.66126 | -79.16270 | 24256 ft | 387 kts | 203° |
| 2026-04-23 22:31 | -0.68574 | -79.17403 | 24256 ft | 388 kts | 204° |
| 2026-04-23 22:31 | -0.71019 | -79.18538 | 24256 ft | 388 kts | 204° |
| 2026-04-23 22:32 | -0.73471 | -79.19681 | 24256 ft | 388 kts | 204° |
| 2026-04-23 22:32 | -0.75912 | -79.20820 | 24252 ft | 388 kts | 204° |
| 2026-04-23 22:32 | -0.78356 | -79.21960 | 24251 ft | 388 kts | 204° |
| 2026-04-23 22:32 | -0.80836 | -79.23115 | 24248 ft | 388 kts | 204° |
| 2026-04-23 22:33 | -0.83246 | -79.24237 | 24248 ft | 388 kts | 204° |
| 2026-04-23 22:33 | -0.85725 | -79.25391 | 24245 ft | 388 kts | 204° |
| 2026-04-23 22:33 | -0.88171 | -79.26528 | 24242 ft | 388 kts | 203° |
| 2026-04-23 22:33 | -0.90617 | -79.27665 | 24242 ft | 388 kts | 203° |
| 2026-04-23 22:34 | -0.93064 | -79.28801 | 24237 ft | 388 kts | 203° |
| 2026-04-23 22:34 | -0.95546 | -79.29953 | 24243 ft | 388 kts | 203° |
| 2026-04-23 22:34 | -0.97963 | -79.31075 | 24238 ft | 388 kts | 203° |
| 2026-04-23 22:34 | -1.00441 | -79.32226 | 24235 ft | 388 kts | 203° |
| 2026-04-23 22:35 | -1.02893 | -79.33366 | 24231 ft | 388 kts | 204° |
| 2026-04-23 22:35 | -1.05321 | -79.34495 | 24023 ft | 382 kts | 204° |
| 2026-04-23 22:35 | -1.07703 | -79.35605 | 23772 ft | 374 kts | 204° |
| 2026-04-23 22:35 | -1.10044 | -79.36697 | 23382 ft | 370 kts | 204° |
| 2026-04-23 22:36 | -1.12375 | -79.37782 | 22899 ft | 369 kts | 204° |
| 2026-04-23 22:36 | -1.14694 | -79.38860 | 22424 ft | 367 kts | 204° |
| 2026-04-23 22:36 | -1.17005 | -79.39932 | 21950 ft | 366 kts | 204° |
| 2026-04-23 22:36 | -1.19311 | -79.41002 | 21488 ft | 364 kts | 204° |
| 2026-04-23 22:37 | -1.21605 | -79.42068 | 21027 ft | 363 kts | 205° |
| 2026-04-23 22:37 | -1.23896 | -79.43133 | 20572 ft | 362 kts | 205° |
| 2026-04-23 22:37 | -1.26173 | -79.44195 | 20101 ft | 360 kts | 205° |
| 2026-04-23 22:37 | -1.28437 | -79.45251 | 19646 ft | 359 kts | 205° |
| 2026-04-23 22:38 | -1.30696 | -79.46303 | 19195 ft | 357 kts | 205° |
| 2026-04-23 22:38 | -1.32933 | -79.47341 | 18745 ft | 355 kts | 205° |
| 2026-04-23 22:38 | -1.35175 | -79.48381 | 18296 ft | 353 kts | 205° |
| 2026-04-23 22:38 | -1.37393 | -79.49410 | 17854 ft | 351 kts | 206° |
| 2026-04-23 22:39 | -1.39601 | -79.50434 | 17414 ft | 349 kts | 206° |
| 2026-04-23 22:39 | -1.41797 | -79.51453 | 16968 ft | 348 kts | 206° |
| 2026-04-23 22:39 | -1.44015 | -79.52484 | 16553 ft | 346 kts | 206° |
| 2026-04-23 22:39 | -1.46165 | -79.53482 | 16128 ft | 344 kts | 206° |
| 2026-04-23 22:40 | -1.48354 | -79.54503 | 15713 ft | 342 kts | 206° |
| 2026-04-23 22:40 | -1.50506 | -79.55508 | 15293 ft | 341 kts | 206° |
| 2026-04-23 22:40 | -1.54779 | -79.57495 | 14458 ft | 337 kts | 206° |
| 2026-04-23 22:41 | -1.56896 | -79.58480 | 14036 ft | 335 kts | 206° |
| 2026-04-23 22:41 | -1.59000 | -79.59461 | 13613 ft | 333 kts | 206° |
| 2026-04-23 22:41 | -1.61098 | -79.60438 | 13203 ft | 331 kts | 206° |
| 2026-04-23 22:41 | -1.63180 | -79.61408 | 12769 ft | 329 kts | 205° |
| 2026-04-23 22:42 | -1.65248 | -79.62370 | 12344 ft | 327 kts | 205° |
| 2026-04-23 22:42 | -1.67307 | -79.63329 | 11916 ft | 325 kts | 205° |
| 2026-04-23 22:42 | -1.69354 | -79.64280 | 11489 ft | 324 kts | 205° |
| 2026-04-23 22:42 | -1.71390 | -79.65224 | 11060 ft | 322 kts | 205° |
| 2026-04-23 22:43 | -1.73417 | -79.66164 | 10621 ft | 320 kts | 205° |
| 2026-04-23 22:43 | -1.75428 | -79.67099 | 10182 ft | 318 kts | 205° |
| 2026-04-23 22:43 | -1.77433 | -79.68032 | 9752 ft | 316 kts | 205° |
| 2026-04-23 22:43 | -1.79419 | -79.68955 | 9299 ft | 315 kts | 205° |
| 2026-04-23 22:44 | -1.81400 | -79.69875 | 8857 ft | 313 kts | 205° |
| 2026-04-23 22:44 | -1.83375 | -79.70794 | 8390 ft | 312 kts | 205° |
| 2026-04-23 22:44 | -1.85368 | -79.71719 | 7930 ft | 310 kts | 205° |
| 2026-04-23 22:44 | -1.87290 | -79.72610 | 7446 ft | 299 kts | 205° |
| 2026-04-23 22:45 | -1.89132 | -79.73465 | 6959 ft | 286 kts | 205° |
| 2026-04-23 22:45 | -1.90939 | -79.74309 | 6184 ft | 286 kts | 205° |
| 2026-04-23 22:45 | -1.92738 | -79.75149 | 5426 ft | 285 kts | 205° |
| 2026-04-23 22:45 | -1.94367 | -79.76226 | 4670 ft | 281 kts | 229° |
| 2026-04-23 22:46 | -1.95277 | -79.77841 | 4092 ft | 272 kts | 255° |
| 2026-04-23 22:46 | -1.95461 | -79.79616 | 4049 ft | 244 kts | 275° |
| 2026-04-23 22:46 | -1.95099 | -79.81190 | 3976 ft | 229 kts | 293° |
| 2026-04-23 22:46 | -1.94261 | -79.82517 | 3730 ft | 225 kts | 313° |
| 2026-04-23 22:47 | -1.93039 | -79.83467 | 3561 ft | 224 kts | 332° |
| 2026-04-23 22:47 | -1.91567 | -79.83968 | 3525 ft | 224 kts | 352° |
| 2026-04-23 22:47 | -1.90009 | -79.83951 | 3530 ft | 226 kts | 11° |
| 2026-04-23 22:47 | -1.88531 | -79.83446 | 3539 ft | 226 kts | 25° |
| 2026-04-23 22:48 | -1.87131 | -79.82724 | 3540 ft | 227 kts | 28° |
| 2026-04-23 22:48 | -1.85758 | -79.81946 | 3542 ft | 226 kts | 30° |
| 2026-04-23 22:48 | -1.84394 | -79.81159 | 3542 ft | 227 kts | 30° |
| 2026-04-23 22:48 | -1.83026 | -79.80372 | 3551 ft | 227 kts | 30° |
| 2026-04-23 22:49 | -1.81660 | -79.79586 | 3552 ft | 226 kts | 32° |
| 2026-04-23 22:49 | -1.80447 | -79.78570 | 3558 ft | 222 kts | 50° |
| 2026-04-23 22:49 | -1.79666 | -79.77329 | 3555 ft | 208 kts | 68° |
| 2026-04-23 22:49 | -1.79302 | -79.75935 | 3569 ft | 204 kts | 85° |
| 2026-04-23 22:50 | -1.79377 | -79.74528 | 3573 ft | 203 kts | 103° |
| 2026-04-23 22:50 | -1.79867 | -79.73229 | 3573 ft | 203 kts | 121° |
| 2026-04-23 22:50 | -1.80741 | -79.72115 | 3578 ft | 202 kts | 139° |
| 2026-04-23 22:50 | -1.81894 | -79.71322 | 3578 ft | 201 kts | 156° |
| 2026-04-23 22:51 | -1.83224 | -79.70910 | 3579 ft | 200 kts | 173° |
| 2026-04-23 22:51 | -1.84612 | -79.70905 | 3573 ft | 200 kts | 190° |
| 2026-04-23 22:51 | -1.85937 | -79.71305 | 3570 ft | 200 kts | 205° |
| 2026-04-23 22:51 | -1.87180 | -79.71933 | 3572 ft | 200 kts | 209° |
| 2026-04-23 22:52 | -1.88392 | -79.72615 | 3564 ft | 200 kts | 210° |
| 2026-04-23 22:52 | -1.89598 | -79.73306 | 3580 ft | 200 kts | 210° |
| 2026-04-23 22:52 | -1.90802 | -79.73995 | 3556 ft | 199 kts | 210° |
| 2026-04-23 22:52 | -1.92005 | -79.74679 | 3544 ft | 199 kts | 210° |
| 2026-04-23 22:53 | -1.93214 | -79.75362 | 3548 ft | 200 kts | 210° |
| 2026-04-23 22:53 | -1.94417 | -79.76052 | 3377 ft | 199 kts | 210° |
| 2026-04-23 22:53 | -1.95613 | -79.76744 | 3195 ft | 199 kts | 211° |
| 2026-04-23 22:53 | -1.96809 | -79.77437 | 3023 ft | 198 kts | 211° |
| 2026-04-23 22:54 | -1.97998 | -79.78129 | 2850 ft | 197 kts | 211° |
| 2026-04-23 22:54 | -1.99179 | -79.78815 | 2690 ft | 197 kts | 211° |
| 2026-04-23 22:54 | -2.00365 | -79.79502 | 2513 ft | 196 kts | 210° |
| 2026-04-23 22:54 | -2.01540 | -79.80183 | 2408 ft | 196 kts | 210° |
| 2026-04-23 22:55 | -2.02719 | -79.80865 | 2312 ft | 196 kts | 210° |
| 2026-04-23 22:55 | -2.03913 | -79.81552 | 2209 ft | 195 kts | 210° |
| 2026-04-23 22:55 | -2.05022 | -79.82191 | 2113 ft | 195 kts | 210° |
| 2026-04-23 22:55 | -2.06190 | -79.82865 | 2002 ft | 190 kts | 210° |
| 2026-04-23 22:56 | -2.07309 | -79.83513 | 1764 ft | 182 kts | 210° |
| 2026-04-23 22:56 | -2.08370 | -79.84126 | 1505 ft | 170 kts | 209° |
| 2026-04-23 22:56 | -2.09357 | -79.84694 | 1299 ft | 156 kts | 209° |
| 2026-04-23 22:56 | -2.10262 | -79.85214 | 1093 ft | 146 kts | 209° |
| 2026-04-23 22:57 | -2.11133 | -79.85715 | 896 ft | 143 kts | 209° |
| 2026-04-23 22:57 | -2.11985 | -79.86205 | 699 ft | 141 kts | 209° |
| 2026-04-23 22:57 | -2.12835 | -79.86693 | 515 ft | 140 kts | 209° |
| 2026-04-23 22:57 | -2.13680 | -79.87178 | 352 ft | 140 kts | 208° |
| 2026-04-23 22:58 | -2.14523 | -79.87660 | 161 ft | 140 kts | 210° |
| 2026-04-23 22:58 | -2.15086 | -79.87990 | 47 ft | 139 kts | 209° |
| 2026-04-23 22:58 | -2.15826 | -79.88413 | 27 ft | 98 kts | 210° |
| 2026-04-23 22:58 | -2.16271 | -79.88668 | 29 ft | 49 kts | 210° |
| 2026-04-23 22:59 | -2.16344 | -79.88748 | 28 ft | 9 kts | 293° |
| 2026-04-23 22:59 | -2.16308 | -79.88793 | 28 ft | 7 kts | 346° |
| 2026-04-23 22:59 | -2.16268 | -79.88778 | 28 ft | 6 kts | 29° |
| 2026-04-23 22:59 | -2.16237 | -79.88760 | 28 ft | 5 kts | 29° |
| 2026-04-23 23:00 | -2.16212 | -79.88747 | 29 ft | 4 kts | 29° |
| 2026-04-23 23:00 | -2.16193 | -79.88736 | 29 ft | 3 kts | 29° |
| 2026-04-23 23:00 | -2.16170 | -79.88722 | 29 ft | 7 kts | 31° |
| 2026-04-23 23:00 | -2.16105 | -79.88684 | 29 ft | 14 kts | 30° |
| 2026-04-23 23:01 | -2.15998 | -79.88624 | 29 ft | 22 kts | 30° |
| 2026-04-23 23:01 | -2.15883 | -79.88557 | 29 ft | 17 kts | 30° |
| 2026-04-23 23:01 | -2.15759 | -79.88487 | 28 ft | 24 kts | 28° |
| 2026-04-23 23:01 | -2.15612 | -79.88399 | 28 ft | 25 kts | 30° |
| 2026-04-23 23:02 | -2.15473 | -79.88320 | 28 ft | 22 kts | 31° |
| 2026-04-23 23:02 | -2.15335 | -79.88241 | 28 ft | 17 kts | 30° |
| 2026-04-23 23:02 | -2.15253 | -79.88243 | 28 ft | 14 kts | 308° |
| 2026-04-23 23:02 | -2.15206 | -79.88325 | 29 ft | 9 kts | 299° |
| 2026-04-23 23:03 | -2.15165 | -79.88391 | 29 ft | 9 kts | 319° |
| 2026-04-23 23:03 | -2.15122 | -79.88395 | 29 ft | 3 kts | 346° |
| 2026-04-23 23:03 | -2.15099 | -79.88424 | 29 ft | 7 kts | 295° |
| 2026-04-23 23:03 | -2.15084 | -79.88450 | 29 ft | 2 kts | 300° |
| 2026-04-23 23:04 | -2.15079 | -79.88459 | 29 ft | 0 kts | 300° |